首页
METAR-TAF:

METAR-TAF

机场 :

Hattiesburg-Laurel Regional Airport

哈蒂斯堡 / 月桂树, 密西西比州, 美国

纬度: 31-28N, 经度: 089-20W, 海拔: 91米

当前天气观测

该预报发布于31分钟前的05:56 UTC
风速5节,风向东北
温度 -2°C
湿度 74%
气压 1030 hPa
能見度: 16.1公里
天空无云

METAR: KPIB 220556Z AUTO 04005KT 10SM CLR M02/M06 A3042 RMK AO2 SLP304 T10171056 10017 21017 400671044 58016 FZRANO

时间: 00:27 (06:27 UTC)

预报

该预报发布于46分钟前的05:41 UTC
预报有效从22日的 06点(UTC)到 23日的 06点(UTC)
风速4节,风向
能見度: 10公里
多云层高于25000英尺

TAF: KPIB 220541Z 2206/2306 09004KT P6SM BKN250

超过4000个机场的气象观测和天气预报(METAR&TAF报告)。

可查询的气象台以黄色和红色小点在地图上表示。

将鼠标移到小点上方,可查看气象台名称。

然后点击查看天气观测和预报。

如需切换地图:点击带黑十字的绿色按钮放大地图;点击带横线的绿色按钮缩小地图;或者点击绿色箭头查看邻近地区的地图。


METAR-TAF: